sensor_id;sensor_type;location;lat;lon;timestamp;noise_LAeq;noise_LA_min;noise_LA_max;noise_LA01;noise_LA95
72686;Laerm;61365;52.162;4.500;2023-11-19T00:01:29;55.15;42.39;60.24;;
72686;Laerm;61365;52.162;4.500;2023-11-19T00:03:55;55.18;43.39;60.06;;
72686;Laerm;61365;52.162;4.500;2023-11-19T00:06:21;55.14;39.91;59.93;;
72686;Laerm;61365;52.162;4.500;2023-11-19T00:08:47;54.97;42.05;59.75;;
72686;Laerm;61365;52.162;4.500;2023-11-19T00:11:14;55.17;43.40;60.36;;
72686;Laerm;61365;52.162;4.500;2023-11-19T00:13:41;55.08;42.58;59.85;;
72686;Laerm;61365;52.162;4.500;2023-11-19T00:16:07;55.13;42.09;60.36;;
72686;Laerm;61365;52.162;4.500;2023-11-19T00:18:35;55.19;39.72;59.98;;
72686;Laerm;61365;52.162;4.500;2023-11-19T00:21:06;55.24;40.34;60.54;;
72686;Laerm;61365;52.162;4.500;2023-11-19T00:23:34;55.31;44.32;60.64;;
72686;Laerm;61365;52.162;4.500;2023-11-19T00:26:00;55.31;42.02;60.13;;
72686;Laerm;61365;52.162;4.500;2023-11-19T00:28:26;55.47;43.60;60.22;;
72686;Laerm;61365;52.162;4.500;2023-11-19T00:30:52;55.39;42.69;60.19;;
72686;Laerm;61365;52.162;4.500;2023-11-19T00:33:18;55.37;40.89;60.27;;
72686;Laerm;61365;52.162;4.500;2023-11-19T00:35:45;55.28;40.67;60.38;;
72686;Laerm;61365;52.162;4.500;2023-11-19T00:38:11;55.30;43.27;60.85;;
72686;Laerm;61365;52.162;4.500;2023-11-19T00:40:37;55.24;43.43;60.39;;
72686;Laerm;61365;52.162;4.500;2023-11-19T00:43:03;55.28;43.56;60.17;;
72686;Laerm;61365;52.162;4.500;2023-11-19T00:45:29;55.35;40.59;60.52;;
72686;Laerm;61365;52.162;4.500;2023-11-19T00:47:55;55.39;41.82;60.59;;
72686;Laerm;61365;52.162;4.500;2023-11-19T00:50:21;55.27;42.25;60.03;;
72686;Laerm;61365;52.162;4.500;2023-11-19T00:52:48;55.14;41.45;59.83;;
72686;Laerm;61365;52.162;4.500;2023-11-19T00:55:14;55.11;42.46;60.62;;
72686;Laerm;61365;52.162;4.500;2023-11-19T00:57:40;55.26;41.53;60.40;;
72686;Laerm;61365;52.162;4.500;2023-11-19T01:00:07;55.22;41.38;60.47;;
72686;Laerm;61365;52.162;4.500;2023-11-19T01:02:48;54.66;39.15;60.44;;
72686;Laerm;61365;52.162;4.500;2023-11-19T01:05:15;55.19;44.40;60.21;;
72686;Laerm;61365;52.162;4.500;2023-11-19T01:07:42;55.11;43.88;59.96;;
72686;Laerm;61365;52.162;4.500;2023-11-19T01:10:09;55.04;40.28;60.15;;
72686;Laerm;61365;52.162;4.500;2023-11-19T01:12:35;55.09;42.60;59.94;;
72686;Laerm;61365;52.162;4.500;2023-11-19T01:15:02;55.03;42.44;59.61;;
72686;Laerm;61365;52.162;4.500;2023-11-19T01:17:28;55.07;43.14;60.56;;
72686;Laerm;61365;52.162;4.500;2023-11-19T01:19:54;54.85;40.57;60.07;;
72686;Laerm;61365;52.162;4.500;2023-11-19T01:22:20;54.73;41.66;59.72;;
72686;Laerm;61365;52.162;4.500;2023-11-19T01:24:47;54.68;42.56;59.64;;
72686;Laerm;61365;52.162;4.500;2023-11-19T01:27:13;54.68;42.13;59.57;;
72686;Laerm;61365;52.162;4.500;2023-11-19T01:29:39;54.40;42.60;59.59;;
72686;Laerm;61365;52.162;4.500;2023-11-19T01:32:05;54.43;39.22;59.60;;
72686;Laerm;61365;52.162;4.500;2023-11-19T01:34:32;54.26;41.33;58.92;;
72686;Laerm;61365;52.162;4.500;2023-11-19T01:36:58;54.15;40.33;60.04;;
72686;Laerm;61365;52.162;4.500;2023-11-19T01:39:24;54.02;40.17;59.97;;
72686;Laerm;61365;52.162;4.500;2023-11-19T01:41:50;53.92;42.30;59.49;;
72686;Laerm;61365;52.162;4.500;2023-11-19T01:44:16;53.85;39.97;59.55;;
72686;Laerm;61365;52.162;4.500;2023-11-19T01:46:44;53.80;41.92;59.40;;
72686;Laerm;61365;52.162;4.500;2023-11-19T01:49:13;53.78;43.18;58.93;;
72686;Laerm;61365;52.162;4.500;2023-11-19T01:51:40;53.79;42.93;59.25;;
72686;Laerm;61365;52.162;4.500;2023-11-19T01:54:07;53.79;40.28;59.00;;
72686;Laerm;61365;52.162;4.500;2023-11-19T01:56:35;53.76;39.84;58.90;;
72686;Laerm;61365;52.162;4.500;2023-11-19T01:59:02;53.66;40.94;58.91;;
72686;Laerm;61365;52.162;4.500;2023-11-19T02:01:29;53.41;39.56;59.01;;
72686;Laerm;61365;52.162;4.500;2023-11-19T02:03:55;53.46;41.41;58.84;;
72686;Laerm;61365;52.162;4.500;2023-11-19T02:06:24;53.57;38.07;59.07;;
72686;Laerm;61365;52.162;4.500;2023-11-19T02:08:51;53.55;39.00;59.69;;
72686;Laerm;61365;52.162;4.500;2023-11-19T02:11:17;53.43;38.46;58.93;;
72686;Laerm;61365;52.162;4.500;2023-11-19T02:13:44;53.41;40.07;58.43;;
72686;Laerm;61365;52.162;4.500;2023-11-19T02:16:10;53.48;40.55;59.61;;
72686;Laerm;61365;52.162;4.500;2023-11-19T02:18:36;53.48;41.80;59.08;;
72686;Laerm;61365;52.162;4.500;2023-11-19T02:21:02;53.44;39.49;59.21;;
72686;Laerm;61365;52.162;4.500;2023-11-19T02:23:31;53.39;40.56;59.22;;
72686;Laerm;61365;52.162;4.500;2023-11-19T02:27:02;53.45;39.21;58.94;;
72686;Laerm;61365;52.162;4.500;2023-11-19T02:29:02;53.32;41.70;58.81;;
72686;Laerm;61365;52.162;4.500;2023-11-19T02:31:29;53.31;38.20;58.64;;
72686;Laerm;61365;52.162;4.500;2023-11-19T02:33:55;53.16;39.40;58.65;;
72686;Laerm;61365;52.162;4.500;2023-11-19T02:36:21;53.06;38.90;59.56;;
72686;Laerm;61365;52.162;4.500;2023-11-19T02:38:47;53.23;40.09;58.24;;
72686;Laerm;61365;52.162;4.500;2023-11-19T02:41:14;53.21;39.60;58.26;;
72686;Laerm;61365;52.162;4.500;2023-11-19T02:43:40;53.20;41.69;58.29;;
72686;Laerm;61365;52.162;4.500;2023-11-19T02:46:06;53.05;39.91;58.50;;
72686;Laerm;61365;52.162;4.500;2023-11-19T02:48:33;53.08;41.18;58.22;;
72686;Laerm;61365;52.162;4.500;2023-11-19T02:51:02;53.11;38.13;58.56;;
72686;Laerm;61365;52.162;4.500;2023-11-19T02:53:32;52.91;41.29;58.08;;
72686;Laerm;61365;52.162;4.500;2023-11-19T02:55:58;53.02;41.35;58.81;;
72686;Laerm;61365;52.162;4.500;2023-11-19T02:58:28;52.75;38.50;57.87;;
72686;Laerm;61365;52.162;4.500;2023-11-19T03:00:55;52.77;39.96;59.32;;
72686;Laerm;61365;52.162;4.500;2023-11-19T03:03:25;52.66;41.89;58.46;;
72686;Laerm;61365;52.162;4.500;2023-11-19T03:05:57;52.69;40.62;58.16;;
72686;Laerm;61365;52.162;4.500;2023-11-19T03:08:23;52.45;40.74;58.37;;
72686;Laerm;61365;52.162;4.500;2023-11-19T03:10:49;52.43;40.88;58.46;;
72686;Laerm;61365;52.162;4.500;2023-11-19T03:13:15;52.43;41.28;58.46;;
72686;Laerm;61365;52.162;4.500;2023-11-19T03:15:42;52.27;41.66;58.17;;
72686;Laerm;61365;52.162;4.500;2023-11-19T03:18:09;52.36;41.07;58.38;;
72686;Laerm;61365;52.162;4.500;2023-11-19T03:20:35;52.35;39.59;58.17;;
72686;Laerm;61365;52.162;4.500;2023-11-19T03:23:01;52.35;41.18;59.21;;
72686;Laerm;61365;52.162;4.500;2023-11-19T03:25:27;52.31;41.06;57.99;;
72686;Laerm;61365;52.162;4.500;2023-11-19T03:28:00;52.21;39.25;57.56;;
72686;Laerm;61365;52.162;4.500;2023-11-19T03:30:30;52.38;42.04;58.44;;
72686;Laerm;61365;52.162;4.500;2023-11-19T03:32:57;52.31;39.55;57.94;;
72686;Laerm;61365;52.162;4.500;2023-11-19T03:35:24;52.27;39.97;57.74;;
72686;Laerm;61365;52.162;4.500;2023-11-19T03:37:50;52.09;39.06;57.91;;
72686;Laerm;61365;52.162;4.500;2023-11-19T03:40:17;52.08;41.33;58.77;;
72686;Laerm;61365;52.162;4.500;2023-11-19T03:42:45;52.09;41.54;58.13;;
72686;Laerm;61365;52.162;4.500;2023-11-19T03:45:12;52.14;39.21;58.61;;
72686;Laerm;61365;52.162;4.500;2023-11-19T03:47:38;52.25;38.00;58.96;;
72686;Laerm;61365;52.162;4.500;2023-11-19T03:50:06;52.25;39.18;58.11;;
72686;Laerm;61365;52.162;4.500;2023-11-19T03:52:33;52.06;39.21;58.50;;
72686;Laerm;61365;52.162;4.500;2023-11-19T03:54:59;51.96;40.16;58.46;;
72686;Laerm;61365;52.162;4.500;2023-11-19T03:57:27;51.88;40.92;57.64;;
72686;Laerm;61365;52.162;4.500;2023-11-19T03:59:53;51.87;37.41;58.33;;
72686;Laerm;61365;52.162;4.500;2023-11-19T04:02:21;51.89;40.81;58.91;;
72686;Laerm;61365;52.162;4.500;2023-11-19T04:04:47;51.72;38.32;57.54;;
72686;Laerm;61365;52.162;4.500;2023-11-19T04:07:14;51.61;39.56;58.42;;
72686;Laerm;61365;52.162;4.500;2023-11-19T04:09:41;51.50;38.57;57.52;;
72686;Laerm;61365;52.162;4.500;2023-11-19T04:12:07;51.44;39.98;56.94;;
72686;Laerm;61365;52.162;4.500;2023-11-19T04:14:34;51.32;40.16;57.44;;
72686;Laerm;61365;52.162;4.500;2023-11-19T04:17:00;51.34;38.88;56.90;;
72686;Laerm;61365;52.162;4.500;2023-11-19T04:19:26;51.34;40.08;57.34;;
72686;Laerm;61365;52.162;4.500;2023-11-19T04:21:52;51.24;41.19;57.12;;
72686;Laerm;61365;52.162;4.500;2023-11-19T04:24:18;51.13;41.30;56.80;;
72686;Laerm;61365;52.162;4.500;2023-11-19T04:26:45;51.19;39.88;57.29;;
72686;Laerm;61365;52.162;4.500;2023-11-19T04:29:13;51.08;40.00;58.25;;
72686;Laerm;61365;52.162;4.500;2023-11-19T04:31:41;50.89;40.74;57.47;;
72686;Laerm;61365;52.162;4.500;2023-11-19T04:34:07;50.90;41.62;58.02;;
72686;Laerm;61365;52.162;4.500;2023-11-19T04:36:34;50.70;40.58;57.05;;
72686;Laerm;61365;52.162;4.500;2023-11-19T04:39:00;50.63;40.91;56.70;;
72686;Laerm;61365;52.162;4.500;2023-11-19T04:41:27;50.52;40.80;56.19;;
72686;Laerm;61365;52.162;4.500;2023-11-19T04:43:56;50.38;40.65;56.98;;
72686;Laerm;61365;52.162;4.500;2023-11-19T04:46:22;49.39;39.05;56.25;;
72686;Laerm;61365;52.162;4.500;2023-11-19T04:48:49;49.23;38.91;54.98;;
72686;Laerm;61365;52.162;4.500;2023-11-19T04:51:16;49.24;39.20;55.39;;
72686;Laerm;61365;52.162;4.500;2023-11-19T04:53:43;49.29;39.65;56.17;;
72686;Laerm;61365;52.162;4.500;2023-11-19T04:56:10;49.23;38.84;55.75;;
72686;Laerm;61365;52.162;4.500;2023-11-19T04:58:36;49.09;38.21;55.88;;
72686;Laerm;61365;52.162;4.500;2023-11-19T05:01:05;49.06;36.99;55.32;;
72686;Laerm;61365;52.162;4.500;2023-11-19T05:03:31;49.09;38.27;55.20;;
72686;Laerm;61365;52.162;4.500;2023-11-19T05:05:58;48.95;37.26;55.83;;
72686;Laerm;61365;52.162;4.500;2023-11-19T05:08:25;48.95;39.22;56.96;;
72686;Laerm;61365;52.162;4.500;2023-11-19T05:10:51;48.92;40.07;56.71;;
72686;Laerm;61365;52.162;4.500;2023-11-19T05:13:17;48.86;38.58;55.39;;
72686;Laerm;61365;52.162;4.500;2023-11-19T05:15:43;48.79;39.84;58.27;;
72686;Laerm;61365;52.162;4.500;2023-11-19T05:18:09;48.70;39.68;56.39;;
72686;Laerm;61365;52.162;4.500;2023-11-19T05:20:35;47.92;40.23;56.02;;
72686;Laerm;61365;52.162;4.500;2023-11-19T05:23:01;46.60;38.40;57.37;;
72686;Laerm;61365;52.162;4.500;2023-11-19T05:25:27;46.56;38.62;56.37;;
72686;Laerm;61365;52.162;4.500;2023-11-19T05:27:53;46.62;38.76;56.86;;
72686;Laerm;61365;52.162;4.500;2023-11-19T05:30:19;46.50;38.89;56.16;;
72686;Laerm;61365;52.162;4.500;2023-11-19T05:32:46;46.57;38.82;57.79;;
72686;Laerm;61365;52.162;4.500;2023-11-19T05:35:12;46.65;39.18;57.88;;
72686;Laerm;61365;52.162;4.500;2023-11-19T05:37:38;46.56;40.19;56.32;;
72686;Laerm;61365;52.162;4.500;2023-11-19T05:40:05;46.72;40.13;56.08;;
72686;Laerm;61365;52.162;4.500;2023-11-19T05:42:42;46.64;38.79;57.46;;
72686;Laerm;61365;52.162;4.500;2023-11-19T05:45:11;46.68;40.20;55.66;;
72686;Laerm;61365;52.162;4.500;2023-11-19T05:47:37;46.64;37.88;55.48;;
72686;Laerm;61365;52.162;4.500;2023-11-19T05:50:03;46.63;38.48;55.68;;
72686;Laerm;61365;52.162;4.500;2023-11-19T05:52:31;46.71;37.14;57.16;;
72686;Laerm;61365;52.162;4.500;2023-11-19T05:55:00;46.54;39.09;56.03;;
72686;Laerm;61365;52.162;4.500;2023-11-19T05:57:29;46.41;39.65;57.73;;
72686;Laerm;61365;52.162;4.500;2023-11-19T05:59:55;46.36;38.97;56.54;;
72686;Laerm;61365;52.162;4.500;2023-11-19T06:02:22;46.44;38.12;56.23;;
72686;Laerm;61365;52.162;4.500;2023-11-19T06:04:48;46.44;39.70;57.07;;
72686;Laerm;61365;52.162;4.500;2023-11-19T06:07:15;46.43;37.77;57.39;;
72686;Laerm;61365;52.162;4.500;2023-11-19T06:09:41;46.38;40.19;56.38;;
72686;Laerm;61365;52.162;4.500;2023-11-19T06:12:08;46.46;37.45;56.61;;
72686;Laerm;61365;52.162;4.500;2023-11-19T06:14:34;46.48;37.54;57.37;;
72686;Laerm;61365;52.162;4.500;2023-11-19T06:17:00;46.37;38.78;56.45;;
72686;Laerm;61365;52.162;4.500;2023-11-19T06:19:26;46.37;40.26;56.41;;
72686;Laerm;61365;52.162;4.500;2023-11-19T06:21:52;46.30;36.52;56.75;;
72686;Laerm;61365;52.162;4.500;2023-11-19T06:24:18;46.34;39.15;56.85;;
72686;Laerm;61365;52.162;4.500;2023-11-19T06:26:45;46.35;38.43;55.89;;
72686;Laerm;61365;52.162;4.500;2023-11-19T06:29:11;46.27;38.91;56.48;;
72686;Laerm;61365;52.162;4.500;2023-11-19T06:31:40;46.33;37.77;57.42;;
72686;Laerm;61365;52.162;4.500;2023-11-19T06:34:07;46.42;40.11;57.03;;
72686;Laerm;61365;52.162;4.500;2023-11-19T06:36:33;46.26;38.72;56.50;;
72686;Laerm;61365;52.162;4.500;2023-11-19T06:38:59;46.37;38.81;57.12;;
72686;Laerm;61365;52.162;4.500;2023-11-19T06:41:27;46.37;39.46;56.88;;
72686;Laerm;61365;52.162;4.500;2023-11-19T06:43:55;46.39;39.80;56.03;;
72686;Laerm;61365;52.162;4.500;2023-11-19T06:46:21;46.52;39.86;55.60;;
72686;Laerm;61365;52.162;4.500;2023-11-19T06:48:47;46.46;39.22;57.32;;
72686;Laerm;61365;52.162;4.500;2023-11-19T06:51:13;46.41;40.02;56.62;;
72686;Laerm;61365;52.162;4.500;2023-11-19T06:53:39;46.57;36.42;56.83;;
72686;Laerm;61365;52.162;4.500;2023-11-19T06:56:25;46.49;39.47;56.60;;
72686;Laerm;61365;52.162;4.500;2023-11-19T06:58:51;46.36;38.65;56.18;;
72686;Laerm;61365;52.162;4.500;2023-11-19T07:01:18;46.33;39.86;56.64;;
72686;Laerm;61365;52.162;4.500;2023-11-19T07:03:48;46.32;39.33;55.12;;
72686;Laerm;61365;52.162;4.500;2023-11-19T07:06:14;46.27;40.71;54.47;;
72686;Laerm;61365;52.162;4.500;2023-11-19T07:08:43;46.23;36.50;57.40;;
72686;Laerm;61365;52.162;4.500;2023-11-19T07:11:14;46.25;38.74;57.35;;
72686;Laerm;61365;52.162;4.500;2023-11-19T07:13:42;46.14;40.69;57.52;;
72686;Laerm;61365;52.162;4.500;2023-11-19T07:16:08;46.15;35.65;57.49;;
72686;Laerm;61365;52.162;4.500;2023-11-19T07:18:35;46.14;38.69;56.96;;
72686;Laerm;61365;52.162;4.500;2023-11-19T07:21:02;46.01;38.27;56.37;;
72686;Laerm;61365;52.162;4.500;2023-11-19T07:23:28;45.90;39.08;56.02;;
72686;Laerm;61365;52.162;4.500;2023-11-19T07:25:54;46.03;38.70;57.41;;
72686;Laerm;61365;52.162;4.500;2023-11-19T07:28:21;46.01;36.71;57.37;;
72686;Laerm;61365;52.162;4.500;2023-11-19T07:30:47;46.13;37.69;57.28;;
72686;Laerm;61365;52.162;4.500;2023-11-19T07:33:13;46.09;38.72;58.19;;
72686;Laerm;61365;52.162;4.500;2023-11-19T07:35:39;46.04;37.25;57.51;;
72686;Laerm;61365;52.162;4.500;2023-11-19T07:38:08;45.92;39.76;55.76;;
72686;Laerm;61365;52.162;4.500;2023-11-19T07:40:34;46.07;36.97;57.06;;
72686;Laerm;61365;52.162;4.500;2023-11-19T07:43:00;46.05;35.61;57.06;;
72686;Laerm;61365;52.162;4.500;2023-11-19T07:45:26;46.06;38.29;55.96;;
72686;Laerm;61365;52.162;4.500;2023-11-19T07:47:53;46.16;38.87;56.30;;
72686;Laerm;61365;52.162;4.500;2023-11-19T07:50:20;46.12;36.19;55.53;;
72686;Laerm;61365;52.162;4.500;2023-11-19T07:52:46;46.24;36.55;57.85;;
72686;Laerm;61365;52.162;4.500;2023-11-19T07:55:12;46.09;39.15;55.42;;
72686;Laerm;61365;52.162;4.500;2023-11-19T07:57:39;45.99;39.97;56.62;;
72686;Laerm;61365;52.162;4.500;2023-11-19T08:00:05;45.93;40.55;57.16;;
72686;Laerm;61365;52.162;4.500;2023-11-19T08:02:32;45.82;37.22;57.53;;
72686;Laerm;61365;52.162;4.500;2023-11-19T08:04:58;45.72;38.69;56.75;;
72686;Laerm;61365;52.162;4.500;2023-11-19T08:07:24;45.78;38.79;55.80;;
72686;Laerm;61365;52.162;4.500;2023-11-19T08:09:51;45.74;36.94;58.17;;
72686;Laerm;61365;52.162;4.500;2023-11-19T08:12:17;45.56;37.16;56.55;;
72686;Laerm;61365;52.162;4.500;2023-11-19T08:14:43;45.46;40.72;55.82;;
72686;Laerm;61365;52.162;4.500;2023-11-19T08:17:10;45.54;36.50;56.61;;
72686;Laerm;61365;52.162;4.500;2023-11-19T08:19:36;45.50;38.05;56.94;;
72686;Laerm;61365;52.162;4.500;2023-11-19T08:22:02;45.44;37.41;56.06;;
72686;Laerm;61365;52.162;4.500;2023-11-19T08:24:28;45.53;36.63;56.92;;
72686;Laerm;61365;52.162;4.500;2023-11-19T08:26:54;45.68;39.06;55.87;;
72686;Laerm;61365;52.162;4.500;2023-11-19T08:29:20;45.62;36.96;56.78;;
72686;Laerm;61365;52.162;4.500;2023-11-19T08:31:47;45.63;38.13;56.04;;
72686;Laerm;61365;52.162;4.500;2023-11-19T08:34:13;45.69;36.24;57.03;;
72686;Laerm;61365;52.162;4.500;2023-11-19T08:36:39;45.56;40.53;56.63;;
72686;Laerm;61365;52.162;4.500;2023-11-19T08:39:05;45.59;40.41;56.38;;
72686;Laerm;61365;52.162;4.500;2023-11-19T08:41:31;45.57;38.47;56.61;;
72686;Laerm;61365;52.162;4.500;2023-11-19T08:43:57;45.51;38.80;57.50;;
72686;Laerm;61365;52.162;4.500;2023-11-19T08:46:23;45.46;37.39;54.47;;
72686;Laerm;61365;52.162;4.500;2023-11-19T08:48:51;45.58;39.02;55.20;;
72686;Laerm;61365;52.162;4.500;2023-11-19T08:51:17;45.60;36.24;56.38;;
72686;Laerm;61365;52.162;4.500;2023-11-19T08:53:43;45.38;36.67;55.98;;
72686;Laerm;61365;52.162;4.500;2023-11-19T08:56:09;45.34;38.98;56.99;;
72686;Laerm;61365;52.162;4.500;2023-11-19T08:58:35;45.40;40.02;55.97;;
72686;Laerm;61365;52.162;4.500;2023-11-19T09:01:01;45.39;38.29;55.81;;
72686;Laerm;61365;52.162;4.500;2023-11-19T09:03:27;45.42;36.87;55.92;;
72686;Laerm;61365;52.162;4.500;2023-11-19T09:05:56;45.39;40.05;56.61;;
72686;Laerm;61365;52.162;4.500;2023-11-19T09:08:22;45.29;38.30;56.43;;
72686;Laerm;61365;52.162;4.500;2023-11-19T09:10:49;45.25;36.56;56.34;;
72686;Laerm;61365;52.162;4.500;2023-11-19T09:13:15;45.36;38.03;56.38;;
72686;Laerm;61365;52.162;4.500;2023-11-19T09:15:41;45.39;38.81;56.90;;
72686;Laerm;61365;52.162;4.500;2023-11-19T09:18:08;45.29;37.73;55.94;;
72686;Laerm;61365;52.162;4.500;2023-11-19T09:20:34;45.24;38.21;56.27;;
72686;Laerm;61365;52.162;4.500;2023-11-19T09:23:05;45.24;37.21;55.74;;
72686;Laerm;61365;52.162;4.500;2023-11-19T09:25:31;45.24;37.72;56.25;;
72686;Laerm;61365;52.162;4.500;2023-11-19T09:27:57;45.29;38.44;58.15;;
72686;Laerm;61365;52.162;4.500;2023-11-19T09:30:23;45.23;38.18;55.80;;
72686;Laerm;61365;52.162;4.500;2023-11-19T09:32:50;45.28;39.15;57.27;;
72686;Laerm;61365;52.162;4.500;2023-11-19T09:35:16;45.31;38.11;56.45;;
72686;Laerm;61365;52.162;4.500;2023-11-19T09:37:43;45.26;37.86;55.78;;
72686;Laerm;61365;52.162;4.500;2023-11-19T09:40:09;45.19;35.39;57.42;;
72686;Laerm;61365;52.162;4.500;2023-11-19T09:42:45;45.17;36.55;57.28;;
72686;Laerm;61365;52.162;4.500;2023-11-19T09:45:16;45.08;39.18;56.72;;
72686;Laerm;61365;52.162;4.500;2023-11-19T09:47:44;45.08;36.53;56.51;;
72686;Laerm;61365;52.162;4.500;2023-11-19T09:50:16;45.09;36.65;55.90;;
72686;Laerm;61365;52.162;4.500;2023-11-19T09:52:44;44.92;36.32;55.56;;
72686;Laerm;61365;52.162;4.500;2023-11-19T09:55:10;44.92;39.69;56.23;;
72686;Laerm;61365;52.162;4.500;2023-11-19T09:57:38;44.94;36.01;54.83;;
72686;Laerm;61365;52.162;4.500;2023-11-19T10:00:06;44.86;37.32;57.03;;
72686;Laerm;61365;52.162;4.500;2023-11-19T10:02:34;44.83;36.30;56.71;;
72686;Laerm;61365;52.162;4.500;2023-11-19T10:05:07;44.81;36.18;56.90;;
72686;Laerm;61365;52.162;4.500;2023-11-19T10:07:34;44.74;37.55;57.35;;
72686;Laerm;61365;52.162;4.500;2023-11-19T10:10:01;44.85;37.99;56.84;;
72686;Laerm;61365;52.162;4.500;2023-11-19T10:12:30;45.13;38.39;57.43;;
72686;Laerm;61365;52.162;4.500;2023-11-19T10:14:57;45.07;35.77;56.89;;
72686;Laerm;61365;52.162;4.500;2023-11-19T10:17:28;45.01;36.93;57.03;;
72686;Laerm;61365;52.162;4.500;2023-11-19T10:19:55;44.94;36.11;56.88;;
72686;Laerm;61365;52.162;4.500;2023-11-19T10:22:23;44.85;36.83;56.85;;
72686;Laerm;61365;52.162;4.500;2023-11-19T10:24:50;44.78;35.95;54.90;;
72686;Laerm;61365;52.162;4.500;2023-11-19T10:27:16;44.72;36.91;54.55;;
72686;Laerm;61365;52.162;4.500;2023-11-19T10:29:48;44.83;36.38;55.72;;
72686;Laerm;61365;52.162;4.500;2023-11-19T10:32:14;44.77;36.69;55.71;;
72686;Laerm;61365;52.162;4.500;2023-11-19T10:34:40;44.74;35.82;56.92;;
72686;Laerm;61365;52.162;4.500;2023-11-19T10:37:07;44.68;37.22;56.92;;
72686;Laerm;61365;52.162;4.500;2023-11-19T10:39:52;44.59;35.82;56.56;;
72686;Laerm;61365;52.162;4.500;2023-11-19T10:42:21;44.61;37.31;55.76;;
72686;Laerm;61365;52.162;4.500;2023-11-19T10:44:48;44.53;36.93;58.11;;
72686;Laerm;61365;52.162;4.500;2023-11-19T10:47:14;44.64;37.06;56.33;;
72686;Laerm;61365;52.162;4.500;2023-11-19T10:49:43;44.52;36.77;57.38;;
72686;Laerm;61365;52.162;4.500;2023-11-19T10:52:09;44.57;36.48;56.81;;
72686;Laerm;61365;52.162;4.500;2023-11-19T10:54:37;44.48;37.61;55.96;;
72686;Laerm;61365;52.162;4.500;2023-11-19T10:57:06;44.51;38.02;56.52;;
72686;Laerm;61365;52.162;4.500;2023-11-19T10:59:36;44.51;37.07;56.06;;
72686;Laerm;61365;52.162;4.500;2023-11-19T11:02:07;44.55;36.40;55.95;;
72686;Laerm;61365;52.162;4.500;2023-11-19T11:04:39;44.50;35.12;57.26;;
72686;Laerm;61365;52.162;4.500;2023-11-19T11:07:09;44.50;37.89;56.92;;
72686;Laerm;61365;52.162;4.500;2023-11-19T11:09:35;44.42;37.42;56.90;;
72686;Laerm;61365;52.162;4.500;2023-11-19T11:12:03;44.38;35.89;56.83;;
72686;Laerm;61365;52.162;4.500;2023-11-19T11:14:30;44.40;36.75;57.84;;
72686;Laerm;61365;52.162;4.500;2023-11-19T11:17:02;44.35;38.71;56.79;;
72686;Laerm;61365;52.162;4.500;2023-11-19T11:19:30;44.24;35.94;55.14;;
72686;Laerm;61365;52.162;4.500;2023-11-19T11:21:58;44.17;36.29;55.42;;
72686;Laerm;61365;52.162;4.500;2023-11-19T11:30:23;44.31;38.40;57.41;;
72686;Laerm;61365;52.162;4.500;2023-11-19T11:35:50;44.25;35.64;56.41;;
72686;Laerm;61365;52.162;4.500;2023-11-19T11:38:22;44.21;35.06;56.64;;
72686;Laerm;61365;52.162;4.500;2023-11-19T11:41:20;44.22;36.06;55.93;;
72686;Laerm;61365;52.162;4.500;2023-11-19T11:43:49;44.28;37.62;57.36;;
72686;Laerm;61365;52.162;4.500;2023-11-19T11:49:04;44.14;36.31;55.62;;
72686;Laerm;61365;52.162;4.500;2023-11-19T11:57:12;44.19;36.47;55.64;;
72686;Laerm;61365;52.162;4.500;2023-11-19T12:02:08;44.27;39.27;56.87;;
72686;Laerm;61365;52.162;4.500;2023-11-19T12:04:35;44.27;36.44;56.01;;
72686;Laerm;61365;52.162;4.500;2023-11-19T12:07:12;44.17;36.93;55.98;;
72686;Laerm;61365;52.162;4.500;2023-11-19T12:09:42;44.10;37.25;56.58;;
72686;Laerm;61365;52.162;4.500;2023-11-19T12:15:12;44.24;36.51;56.50;;
72686;Laerm;61365;52.162;4.500;2023-11-19T12:17:42;44.20;37.77;54.83;;
72686;Laerm;61365;52.162;4.500;2023-11-19T12:20:11;44.17;36.91;56.60;;
72686;Laerm;61365;52.162;4.500;2023-11-19T12:22:39;44.07;35.70;55.75;;
72686;Laerm;61365;52.162;4.500;2023-11-19T12:25:06;44.05;37.45;55.60;;
72686;Laerm;61365;52.162;4.500;2023-11-19T12:27:33;44.14;37.81;56.02;;
72686;Laerm;61365;52.162;4.500;2023-11-19T12:30:02;44.19;36.56;56.30;;
72686;Laerm;61365;52.162;4.500;2023-11-19T12:32:42;44.22;36.94;56.73;;
72686;Laerm;61365;52.162;4.500;2023-11-19T12:35:09;44.18;37.16;55.96;;
72686;Laerm;61365;52.162;4.500;2023-11-19T12:37:45;44.11;36.58;55.80;;
72686;Laerm;61365;52.162;4.500;2023-11-19T12:40:16;44.07;36.30;56.28;;
72686;Laerm;61365;52.162;4.500;2023-11-19T12:42:44;44.09;37.57;55.27;;
72686;Laerm;61365;52.162;4.500;2023-11-19T12:45:10;44.18;35.48;55.82;;
72686;Laerm;61365;52.162;4.500;2023-11-19T12:47:37;44.25;37.58;56.27;;
72686;Laerm;61365;52.162;4.500;2023-11-19T12:50:04;44.27;36.72;56.99;;
72686;Laerm;61365;52.162;4.500;2023-11-19T12:52:30;44.25;36.68;56.09;;
72686;Laerm;61365;52.162;4.500;2023-11-19T12:54:56;44.29;36.26;57.24;;
72686;Laerm;61365;52.162;4.500;2023-11-19T12:57:37;44.18;37.45;55.77;;
72686;Laerm;61365;52.162;4.500;2023-11-19T13:00:05;44.28;36.69;55.97;;
72686;Laerm;61365;52.162;4.500;2023-11-19T13:02:52;44.37;37.24;55.62;;
72686;Laerm;61365;52.162;4.500;2023-11-19T13:05:32;44.26;37.03;55.81;;
72686;Laerm;61365;52.162;4.500;2023-11-19T13:08:05;44.26;36.54;55.27;;
72686;Laerm;61365;52.162;4.500;2023-11-19T13:10:52;44.28;37.96;55.62;;
72686;Laerm;61365;52.162;4.500;2023-11-19T13:13:19;44.16;35.66;55.20;;
72686;Laerm;61365;52.162;4.500;2023-11-19T13:15:45;44.32;36.38;56.57;;
72686;Laerm;61365;52.162;4.500;2023-11-19T13:18:12;44.19;37.97;55.10;;
72686;Laerm;61365;52.162;4.500;2023-11-19T13:20:39;44.28;37.23;55.58;;
72686;Laerm;61365;52.162;4.500;2023-11-19T13:23:06;44.20;37.24;55.47;;
72686;Laerm;61365;52.162;4.500;2023-11-19T13:25:36;44.24;36.02;56.46;;
72686;Laerm;61365;52.162;4.500;2023-11-19T13:28:02;44.34;36.43;57.90;;
72686;Laerm;61365;52.162;4.500;2023-11-19T13:30:29;44.01;36.33;56.47;;
72686;Laerm;61365;52.162;4.500;2023-11-19T13:32:55;44.16;35.62;55.83;;
72686;Laerm;61365;52.162;4.500;2023-11-19T13:35:22;44.27;37.55;55.81;;
72686;Laerm;61365;52.162;4.500;2023-11-19T13:37:48;44.21;38.02;56.57;;
72686;Laerm;61365;52.162;4.500;2023-11-19T13:40:15;44.21;35.85;56.06;;
72686;Laerm;61365;52.162;4.500;2023-11-19T13:42:42;44.21;38.10;56.32;;
72686;Laerm;61365;52.162;4.500;2023-11-19T13:45:12;44.17;36.58;55.78;;
72686;Laerm;61365;52.162;4.500;2023-11-19T13:47:42;44.08;37.66;54.75;;
72686;Laerm;61365;52.162;4.500;2023-11-19T13:50:09;44.05;35.87;56.22;;
72686;Laerm;61365;52.162;4.500;2023-11-19T13:52:37;44.21;36.36;55.67;;
72686;Laerm;61365;52.162;4.500;2023-11-19T13:55:07;44.12;35.77;56.37;;
72686;Laerm;61365;52.162;4.500;2023-11-19T13:57:38;44.22;38.36;56.84;;
72686;Laerm;61365;52.162;4.500;2023-11-19T14:00:06;44.23;36.87;56.89;;
72686;Laerm;61365;52.162;4.500;2023-11-19T14:02:33;44.28;38.07;55.59;;
72686;Laerm;61365;52.162;4.500;2023-11-19T14:04:59;44.41;37.67;55.67;;
72686;Laerm;61365;52.162;4.500;2023-11-19T14:07:26;44.46;37.41;55.99;;
72686;Laerm;61365;52.162;4.500;2023-11-19T14:09:52;44.48;37.22;56.72;;